Payne, Ohio
Current Conditions -  °F | °C
As of 5:15 PM on Thursday 18 Dec 2014 (Local Time) from KGWB Reporting Station
Overcast Overcast  
Wind Chill: -5°   Ceiling: 1300
Heat Index: -1°   Visibility: 10mi
Dew Point: -5°   Wind: 7mph
Humidity: 75%   Direction: 290°WNW
Pressure: 30.21"   Gusts: NA
Location:  41.08°N, 84.73°W
Report Text: KGWB 182215Z AUTO 29006KT 10SM OVC013 M01/M05 A3021 RMK AO2
Loading
Personal Weather Stations






























Interactive Weather Map New forecast layout! Learn more

10-Day Weather Forecast

Advertisements
Track Severe Weather on mobile